Time;durP1;ratioP1;P1;durP2;ratioP2;P2;SDS_P1;SDS_P2;PMS_P1;PMS_P2;Temp;Humidity;BMP_temperature;BMP_pressure;BME280_temperature;BME280_humidity;BME280_pressure;Samples;Min_cycle;Max_cycle;Signal;HPM_P1;HPM_P2
2022/01/19 00:00:33;;;;;;;164.37;35.87;;;;;;;;;;5051445;28;20052;-59
2022/01/19 00:02:58;;;;;;;130.23;34.33;;;;;;;;;;5051302;28;20043;-59
2022/01/19 00:05:23;;;;;;;104.43;32.23;;;;;;;;;;5053030;28;20052;-59
2022/01/19 00:07:48;;;;;;;87.18;35.85;;;;;;;;;;5053323;28;20017;-59
2022/01/19 00:10:18;;;;;;;98.20;34.55;;;;;;;;;;5051552;28;20033;-59
2022/01/19 00:12:45;;;;;;;118.68;35.75;;;;;;;;;;5053954;28;20179;-59
2022/01/19 00:15:11;;;;;;;92.60;36.17;;;;;;;;;;5049216;28;20812;-58
2022/01/19 00:17:36;;;;;;;88.63;36.20;;;;;;;;;;5052700;28;20045;-59
2022/01/19 00:20:01;;;;;;;120.07;47.50;;;;;;;;;;5049199;28;20033;-59
2022/01/19 00:22:27;;;;;;;87.25;38.95;;;;;;;;;;5057905;28;20019;-59
2022/01/19 00:24:52;;;;;;;89.13;36.33;;;;;;;;;;5066072;28;20041;-59
2022/01/19 00:27:17;;;;;;;101.70;36.00;;;;;;;;;;5067621;28;20510;-59
2022/01/19 00:29:43;;;;;;;102.00;36.55;;;;;;;;;;5055334;28;20060;-59
2022/01/19 00:32:08;;;;;;;92.68;38.33;;;;;;;;;;5053112;28;20045;-59
2022/01/19 00:34:33;;;;;;;118.82;39.88;;;;;;;;;;5054650;28;20419;-59
2022/01/19 00:36:58;;;;;;;93.03;35.73;;;;;;;;;;5073035;28;20024;-59
2022/01/19 00:39:29;;;;;;;333.67;152.55;;;;;;;;;;5054079;28;20036;-59
2022/01/19 00:41:55;;;;;;;107.97;48.67;;;;;;;;;;5053326;28;20109;-59
2022/01/19 00:44:20;;;;;;;114.00;47.28;;;;;;;;;;5051534;28;20492;-59
2022/01/19 00:46:45;;;;;;;176.93;72.43;;;;;;;;;;5066570;28;20029;-59
2022/01/19 00:49:10;;;;;;;136.60;51.50;;;;;;;;;;5054832;28;20051;-60
2022/01/19 00:51:35;;;;;;;116.13;46.67;;;;;;;;;;5072427;28;20802;-59
2022/01/19 00:54:01;;;;;;;322.92;111.05;;;;;;;;;;5071234;28;20094;-59
2022/01/19 00:56:27;;;;;;;327.93;127.77;;;;;;;;;;5054615;28;20032;-60
2022/01/19 00:58:52;;;;;;;114.28;52.35;;;;;;;;;;5062277;28;20981;-59
2022/01/19 01:01:17;;;;;;;219.13;104.25;;;;;;;;;;5068381;28;20032;-60
2022/01/19 01:03:42;;;;;;;134.07;55.53;;;;;;;;;;5051130;28;20016;-59
2022/01/19 01:06:07;;;;;;;172.65;58.42;;;;;;;;;;5070753;28;20454;-59
2022/01/19 01:08:33;;;;;;;123.05;47.30;;;;;;;;;;5071391;28;20032;-58
2022/01/19 01:10:58;;;;;;;110.45;43.72;;;;;;;;;;5072096;28;20016;-59
2022/01/19 01:16:05;;;;;;;79.13;39.65;;;;;;;;;;5069604;28;20037;-60
2022/01/19 01:18:31;;;;;;;129.45;50.38;;;;;;;;;;5072795;28;20111;-59
2022/01/19 01:20:57;;;;;;;113.28;49.15;;;;;;;;;;5070883;28;20487;-60
2022/01/19 01:23:23;;;;;;;130.95;50.35;;;;;;;;;;5066523;28;20017;-61
2022/01/19 01:25:48;;;;;;;137.15;47.72;;;;;;;;;;5050444;28;20110;-60
2022/01/19 01:28:14;;;;;;;112.03;42.03;;;;;;;;;;5052620;28;20418;-59
2022/01/19 01:30:40;;;;;;;114.00;41.33;;;;;;;;;;5065299;28;20453;-59
2022/01/19 01:33:05;;;;;;;105.97;41.85;;;;;;;;;;5068951;28;20148;-59
2022/01/19 01:35:31;;;;;;;112.72;44.55;;;;;;;;;;5050832;28;20496;-59
2022/01/19 01:37:56;;;;;;;129.95;41.35;;;;;;;;;;5052218;28;20021;-60
2022/01/19 01:40:24;;;;;;;112.07;35.70;;;;;;;;;;5050471;28;20029;-59
2022/01/19 01:42:50;;;;;;;120.95;42.85;;;;;;;;;;5056982;28;20020;-59
2022/01/19 01:45:17;;;;;;;109.63;39.92;;;;;;;;;;5050850;28;20036;-59
2022/01/19 01:47:54;;;;;;;107.00;39.40;;;;;;;;;;5051791;28;20017;-60
2022/01/19 01:55:47;;;;;;;132.65;44.33;;;;;;;;;;5069668;28;20443;-60
2022/01/19 01:58:12;;;;;;;116.63;40.17;;;;;;;;;;5071482;28;20021;-60
2022/01/19 02:00:38;;;;;;;122.68;42.25;;;;;;;;;;5069490;28;20036;-60
2022/01/19 02:03:03;;;;;;;111.97;40.67;;;;;;;;;;5068992;28;20111;-60
2022/01/19 02:05:29;;;;;;;112.43;41.07;;;;;;;;;;5050273;28;20477;-60
2022/01/19 02:24:14;;;;;;;105.20;38.40;;;;;;;;;;5058054;28;20035;-60
2022/01/19 02:26:57;;;;;;;111.57;36.38;;;;;;;;;;5065380;28;20386;-59
2022/01/19 02:40:18;;;;;;;91.22;38.70;;;;;;;;;;5064969;28;20054;-60
2022/01/19 02:43:28;;;;;;;97.97;43.38;;;;;;;;;;5069389;28;20028;-60
2022/01/19 02:51:01;;;;;;;88.10;42.05;;;;;;;;;;5059657;28;20511;-60
2022/01/19 02:53:26;;;;;;;99.77;47.77;;;;;;;;;;5054631;28;20050;-58
2022/01/19 02:55:51;;;;;;;96.40;44.75;;;;;;;;;;5070432;28;20466;-60
2022/01/19 02:58:20;;;;;;;89.95;42.28;;;;;;;;;;5059023;28;20017;-60
2022/01/19 03:08:57;;;;;;;85.15;43.33;;;;;;;;;;5028955;28;20075;-60
2022/01/19 03:11:24;;;;;;;80.32;42.63;;;;;;;;;;5030655;28;20034;-60
2022/01/19 03:13:49;;;;;;;83.90;43.85;;;;;;;;;;5044841;28;20048;-60
2022/01/19 03:16:16;;;;;;;80.67;45.23;;;;;;;;;;5070153;28;20016;-60
2022/01/19 03:18:41;;;;;;;101.57;48.33;;;;;;;;;;5058352;28;20446;-59
2022/01/19 03:21:06;;;;;;;91.43;48.28;;;;;;;;;;5050485;28;20046;-59
2022/01/19 03:23:32;;;;;;;82.40;44.47;;;;;;;;;;5053771;28;20043;-59
2022/01/19 03:25:58;;;;;;;88.20;44.20;;;;;;;;;;5069845;28;20020;-60
2022/01/19 03:28:24;;;;;;;82.25;44.50;;;;;;;;;;5070583;28;20035;-59
2022/01/19 03:30:49;;;;;;;83.00;46.17;;;;;;;;;;5068103;28;20433;-59
2022/01/19 03:33:14;;;;;;;72.00;39.38;;;;;;;;;;5067923;28;20028;-59
2022/01/19 03:35:39;;;;;;;86.82;44.58;;;;;;;;;;5060197;28;20120;-59
2022/01/19 03:38:08;;;;;;;77.07;42.28;;;;;;;;;;5069996;28;20078;-59
2022/01/19 03:40:33;;;;;;;72.63;41.92;;;;;;;;;;5068834;28;20232;-59
2022/01/19 03:42:58;;;;;;;79.85;40.05;;;;;;;;;;5060909;28;20384;-60
2022/01/19 03:45:24;;;;;;;62.58;39.00;;;;;;;;;;5049254;28;20037;-59
2022/01/19 03:47:55;;;;;;;72.53;40.15;;;;;;;;;;5050061;28;20017;-59
2022/01/19 03:50:21;;;;;;;58.30;37.53;;;;;;;;;;5059456;28;20131;-59
2022/01/19 03:52:46;;;;;;;72.88;38.70;;;;;;;;;;5069680;28;20075;-58
2022/01/19 03:55:11;;;;;;;87.45;40.55;;;;;;;;;;5049862;28;20045;-58
2022/01/19 03:57:37;;;;;;;62.17;35.83;;;;;;;;;;5054430;28;20024;-59
2022/01/19 04:00:03;;;;;;;56.08;33.20;;;;;;;;;;5068315;28;20032;-58
2022/01/19 04:02:28;;;;;;;57.05;30.02;;;;;;;;;;5067867;28;20063;-59
2022/01/19 04:05:00;;;;;;;56.50;33.75;;;;;;;;;;5064285;28;20128;-58
2022/01/19 04:07:26;;;;;;;58.92;33.58;;;;;;;;;;5069706;28;20325;-58
2022/01/19 04:09:51;;;;;;;54.28;32.20;;;;;;;;;;5068494;28;20033;-58
2022/01/19 04:12:31;;;;;;;43.20;29.02;;;;;;;;;;5056228;28;20107;-58
2022/01/19 04:14:56;;;;;;;36.83;27.00;;;;;;;;;;5067859;28;20048;-58
2022/01/19 04:17:22;;;;;;;52.85;24.80;;;;;;;;;;5059237;28;20017;-59
2022/01/19 04:19:48;;;;;;;50.20;30.88;;;;;;;;;;5071800;28;20033;-58
2022/01/19 04:22:15;;;;;;;50.30;30.73;;;;;;;;;;5073639;28;20021;-58
2022/01/19 04:24:41;;;;;;;43.30;25.55;;;;;;;;;;5054340;28;20029;-59
2022/01/19 04:29:56;;;;;;;45.88;26.75;;;;;;;;;;5051718;28;20030;-60
2022/01/19 04:32:28;;;;;;;46.92;27.38;;;;;;;;;;5070153;28;20162;-60
2022/01/19 04:34:53;;;;;;;39.03;27.05;;;;;;;;;;5052618;28;20124;-60
2022/01/19 05:04:08;;;;;;;30.15;24.58;;;;;;;;;;5061964;28;20479;-58
2022/01/19 05:06:38;;;;;;;29.70;24.02;;;;;;;;;;5072884;28;20036;-59
2022/01/19 05:09:11;;;;;;;25.50;21.77;;;;;;;;;;5057827;28;20041;-59
2022/01/19 05:14:20;;;;;;;28.05;23.63;;;;;;;;;;5068123;28;20090;-58
2022/01/19 05:16:45;;;;;;;28.30;24.37;;;;;;;;;;5065736;28;20460;-58
2022/01/19 05:19:10;;;;;;;30.40;24.43;;;;;;;;;;5051344;28;20029;-57
2022/01/19 05:21:36;;;;;;;30.65;25.33;;;;;;;;;;5051984;28;20953;-58
2022/01/19 05:24:04;;;;;;;25.60;22.83;;;;;;;;;;5051636;28;20033;-57
2022/01/19 05:26:30;;;;;;;31.90;25.35;;;;;;;;;;5052748;28;20096;-57
2022/01/19 05:28:55;;;;;;;25.63;22.73;;;;;;;;;;5050735;28;20599;-57
2022/01/19 05:31:20;;;;;;;38.77;25.00;;;;;;;;;;5056051;28;20102;-57
2022/01/19 05:33:45;;;;;;;35.15;27.45;;;;;;;;;;5061037;28;20437;-57
2022/01/19 05:36:11;;;;;;;29.52;24.85;;;;;;;;;;5055344;28;20055;-57
2022/01/19 05:38:36;;;;;;;30.13;26.13;;;;;;;;;;5055893;28;20388;-57
2022/01/19 05:41:01;;;;;;;29.70;26.67;;;;;;;;;;5052013;28;20031;-57
2022/01/19 05:43:27;;;;;;;33.70;27.30;;;;;;;;;;5051714;28;20435;-58
2022/01/19 05:45:52;;;;;;;37.45;29.90;;;;;;;;;;5050565;28;20057;-57
2022/01/19 05:48:17;;;;;;;35.58;29.90;;;;;;;;;;5052493;28;20032;-57
2022/01/19 05:50:42;;;;;;;32.72;27.70;;;;;;;;;;5050183;28;20033;-58
2022/01/19 05:53:07;;;;;;;32.03;28.25;;;;;;;;;;5052045;28;20021;-57
2022/01/19 05:55:33;;;;;;;39.40;31.90;;;;;;;;;;5050471;28;20067;-57
2022/01/19 05:57:58;;;;;;;34.93;29.20;;;;;;;;;;5051486;28;20439;-57
2022/01/19 06:00:23;;;;;;;37.77;32.37;;;;;;;;;;5050569;28;20517;-57
2022/01/19 06:02:49;;;;;;;36.50;30.60;;;;;;;;;;5051516;28;20108;-57
2022/01/19 06:05:14;;;;;;;36.55;30.50;;;;;;;;;;5049793;28;20447;-58
2022/01/19 06:07:45;;;;;;;39.75;32.17;;;;;;;;;;5051718;28;20028;-57
2022/01/19 06:10:12;;;;;;;38.80;31.55;;;;;;;;;;5050350;28;20576;-57
2022/01/19 06:12:38;;;;;;;42.65;35.08;;;;;;;;;;5051295;28;20036;-57
2022/01/19 06:15:04;;;;;;;50.97;37.92;;;;;;;;;;5050126;28;20036;-57
2022/01/19 06:17:29;;;;;;;41.78;33.58;;;;;;;;;;5051661;28;20024;-57
2022/01/19 06:19:54;;;;;;;47.73;36.30;;;;;;;;;;5049582;28;20033;-57
2022/01/19 06:22:21;;;;;;;43.97;35.67;;;;;;;;;;5051391;28;20074;-58
2022/01/19 06:24:46;;;;;;;41.42;34.38;;;;;;;;;;5049856;28;20448;-58
2022/01/19 06:27:11;;;;;;;44.30;34.80;;;;;;;;;;5051166;28;20536;-57
2022/01/19 06:29:37;;;;;;;49.78;32.60;;;;;;;;;;5049890;28;20033;-58
2022/01/19 06:32:02;;;;;;;43.58;35.17;;;;;;;;;;5050958;28;20125;-57
2022/01/19 06:34:27;;;;;;;51.42;37.85;;;;;;;;;;5049396;28;20036;-57
2022/01/19 06:36:53;;;;;;;54.80;36.92;;;;;;;;;;5051133;28;20464;-57
2022/01/19 06:39:18;;;;;;;50.53;35.97;;;;;;;;;;5049838;28;20029;-57
2022/01/19 06:41:44;;;;;;;53.15;37.17;;;;;;;;;;5049689;28;20063;-58
2022/01/19 06:44:09;;;;;;;46.53;34.17;;;;;;;;;;5049386;28;20468;-58
2022/01/19 06:46:34;;;;;;;52.08;34.33;;;;;;;;;;5050859;28;20025;-58
2022/01/19 06:48:59;;;;;;;50.97;33.42;;;;;;;;;;5049242;28;20045;-57
2022/01/19 06:51:25;;;;;;;61.35;38.13;;;;;;;;;;5050475;28;20021;-55
2022/01/19 06:53:50;;;;;;;54.80;35.43;;;;;;;;;;5048964;28;20037;-55
2022/01/19 06:56:16;;;;;;;50.33;34.97;;;;;;;;;;5050729;28;20458;-55
2022/01/19 06:58:41;;;;;;;52.00;36.92;;;;;;;;;;5048508;28;20016;-55
2022/01/19 07:01:06;;;;;;;51.40;33.53;;;;;;;;;;5050066;28;20468;-55
2022/01/19 07:03:32;;;;;;;55.83;36.37;;;;;;;;;;5049056;28;20013;-55
2022/01/19 07:05:58;;;;;;;52.60;34.13;;;;;;;;;;5049674;28;20436;-56
2022/01/19 07:08:23;;;;;;;56.95;37.58;;;;;;;;;;5050394;28;20100;-55
2022/01/19 07:10:48;;;;;;;56.83;35.08;;;;;;;;;;5048312;28;20493;-54
2022/01/19 07:13:13;;;;;;;55.63;37.17;;;;;;;;;;5049869;28;20112;-55
2022/01/19 07:15:40;;;;;;;53.58;39.97;;;;;;;;;;5048345;28;20040;-55
2022/01/19 07:18:05;;;;;;;50.15;34.10;;;;;;;;;;5050857;28;20084;-55
2022/01/19 07:20:30;;;;;;;48.20;32.13;;;;;;;;;;5048843;28;20048;-55
2022/01/19 07:22:56;;;;;;;50.63;35.50;;;;;;;;;;5050307;28;20407;-55
2022/01/19 07:25:22;;;;;;;59.28;38.22;;;;;;;;;;5048824;28;20029;-55
2022/01/19 07:27:47;;;;;;;57.88;37.63;;;;;;;;;;5050131;28;20079;-55
2022/01/19 07:30:12;;;;;;;51.83;35.00;;;;;;;;;;5048927;28;20207;-55
2022/01/19 07:32:37;;;;;;;49.00;33.80;;;;;;;;;;5049598;28;20099;-55
2022/01/19 07:35:04;;;;;;;44.90;30.13;;;;;;;;;;5046848;28;20033;-55
2022/01/19 07:37:29;;;;;;;50.38;35.80;;;;;;;;;;5048240;28;20024;-54
2022/01/19 07:39:54;;;;;;;52.55;33.85;;;;;;;;;;5048128;28;20047;-55
2022/01/19 07:42:20;;;;;;;50.42;35.10;;;;;;;;;;5050137;28;20032;-55
2022/01/19 07:44:45;;;;;;;55.78;36.17;;;;;;;;;;5048480;28;20484;-55
2022/01/19 07:47:10;;;;;;;56.42;38.70;;;;;;;;;;5050464;28;20039;-55
2022/01/19 07:49:35;;;;;;;58.70;38.23;;;;;;;;;;5048395;28;20452;-55
2022/01/19 07:52:00;;;;;;;52.77;36.97;;;;;;;;;;5050093;28;20028;-55
2022/01/19 07:54:25;;;;;;;55.28;36.78;;;;;;;;;;5051487;28;20168;-55
2022/01/19 07:56:51;;;;;;;48.35;34.22;;;;;;;;;;5052237;28;20029;-55
2022/01/19 07:59:16;;;;;;;55.53;40.00;;;;;;;;;;5058949;28;20029;-55
2022/01/19 08:01:41;;;;;;;47.15;33.35;;;;;;;;;;5073790;28;20112;-55
2022/01/19 08:04:07;;;;;;;57.88;36.10;;;;;;;;;;5054042;28;20376;-54
2022/01/19 08:06:32;;;;;;;53.67;35.23;;;;;;;;;;5054109;28;20072;-55
2022/01/19 08:08:57;;;;;;;55.23;33.90;;;;;;;;;;5052257;28;20439;-54
2022/01/19 08:11:23;;;;;;;61.45;41.28;;;;;;;;;;5053659;28;20427;-55
2022/01/19 08:13:48;;;;;;;58.58;37.15;;;;;;;;;;5052276;28;20029;-55
2022/01/19 08:16:13;;;;;;;54.87;39.60;;;;;;;;;;5053422;28;20161;-55
2022/01/19 08:18:38;;;;;;;54.50;36.65;;;;;;;;;;5051860;28;20498;-55
2022/01/19 08:21:04;;;;;;;52.17;34.65;;;;;;;;;;5053668;28;20449;-55
2022/01/19 08:23:29;;;;;;;49.20;35.47;;;;;;;;;;5053696;28;20017;-55
2022/01/19 08:25:54;;;;;;;49.43;34.27;;;;;;;;;;5051141;28;20080;-55
2022/01/19 08:28:20;;;;;;;56.57;38.40;;;;;;;;;;5053747;28;20464;-55
2022/01/19 08:30:46;;;;;;;58.28;36.10;;;;;;;;;;5051771;28;20794;-55
2022/01/19 08:33:11;;;;;;;57.22;36.60;;;;;;;;;;5052935;28;20047;-55
2022/01/19 08:35:36;;;;;;;61.17;33.30;;;;;;;;;;5051553;28;20033;-54
2022/01/19 08:38:02;;;;;;;52.55;35.50;;;;;;;;;;5053075;28;20039;-55
2022/01/19 08:40:29;;;;;;;51.85;35.55;;;;;;;;;;5051464;28;20053;-55
2022/01/19 08:42:54;;;;;;;51.75;36.50;;;;;;;;;;5053159;28;20021;-55
2022/01/19 08:45:20;;;;;;;56.13;37.00;;;;;;;;;;5051605;28;20029;-55
2022/01/19 08:47:46;;;;;;;54.35;34.83;;;;;;;;;;5052729;28;20515;-55
2022/01/19 08:50:12;;;;;;;58.13;37.63;;;;;;;;;;5051720;28;20037;-55
2022/01/19 08:52:37;;;;;;;53.67;38.35;;;;;;;;;;5052630;28;20474;-54
2022/01/19 08:55:03;;;;;;;49.57;34.60;;;;;;;;;;5051341;28;20029;-55
2022/01/19 08:57:28;;;;;;;52.83;36.47;;;;;;;;;;5053217;28;20585;-55
2022/01/19 08:59:53;;;;;;;59.55;38.22;;;;;;;;;;5051211;28;20111;-55
2022/01/19 09:02:18;;;;;;;49.70;34.17;;;;;;;;;;5052451;28;20024;-55
2022/01/19 09:04:44;;;;;;;47.80;36.90;;;;;;;;;;5049903;28;20095;-55
2022/01/19 09:07:09;;;;;;;52.42;37.15;;;;;;;;;;5052830;28;20021;-55
2022/01/19 09:09:34;;;;;;;62.20;38.28;;;;;;;;;;5051101;28;20124;-55
2022/01/19 09:11:59;;;;;;;53.80;36.40;;;;;;;;;;5052268;28;20075;-55
2022/01/19 09:14:24;;;;;;;54.10;35.60;;;;;;;;;;5051078;28;20037;-54
2022/01/19 09:16:49;;;;;;;53.35;38.08;;;;;;;;;;5052259;28;20859;-54
2022/01/19 09:19:15;;;;;;;48.33;35.13;;;;;;;;;;5051045;28;20087;-55
2022/01/19 09:21:40;;;;;;;52.30;34.75;;;;;;;;;;5052146;28;20423;-55
2022/01/19 09:24:06;;;;;;;50.97;37.47;;;;;;;;;;5051304;28;20500;-54
2022/01/19 09:26:31;;;;;;;50.40;34.13;;;;;;;;;;5052049;28;20040;-55
2022/01/19 09:28:56;;;;;;;55.30;38.00;;;;;;;;;;5050725;28;20436;-55
2022/01/19 09:31:22;;;;;;;54.28;36.95;;;;;;;;;;5052297;28;20458;-55
2022/01/19 09:33:55;;;;;;;57.42;39.55;;;;;;;;;;5050408;28;20030;-54
2022/01/19 09:38:54;;;;;;;55.88;36.28;;;;;;;;;;5050698;28;20531;-55
2022/01/19 09:41:19;;;;;;;55.53;38.92;;;;;;;;;;5051954;28;20433;-55
2022/01/19 09:43:44;;;;;;;64.93;37.22;;;;;;;;;;5050443;28;20013;-55
2022/01/19 09:46:09;;;;;;;62.03;39.95;;;;;;;;;;5052318;28;20028;-55
2022/01/19 09:48:35;;;;;;;55.75;38.88;;;;;;;;;;5050441;28;20513;-55
2022/01/19 09:51:00;;;;;;;63.97;41.50;;;;;;;;;;5052012;28;20383;-55
2022/01/19 09:53:26;;;;;;;66.95;42.70;;;;;;;;;;5052141;28;20481;-55
2022/01/19 09:55:51;;;;;;;53.03;40.78;;;;;;;;;;5049878;28;20373;-55
2022/01/19 09:58:18;;;;;;;61.13;42.67;;;;;;;;;;5051992;28;20013;-54
2022/01/19 10:00:44;;;;;;;67.38;39.70;;;;;;;;;;5050141;28;21065;-54
2022/01/19 10:03:15;;;;;;;48.45;36.70;;;;;;;;;;5051641;28;20013;-55
2022/01/19 10:06:07;;;;;;;54.00;38.08;;;;;;;;;;5050043;28;20037;-55
2022/01/19 10:08:35;;;;;;;62.65;40.35;;;;;;;;;;5047617;28;20049;-55
2022/01/19 10:11:04;;;;;;;51.63;37.03;;;;;;;;;;5051302;28;20021;-55
2022/01/19 10:19:12;;;;;;;54.58;34.97;;;;;;;;;;5050035;28;20503;-55
2022/01/19 10:21:54;;;;;;;53.92;34.72;;;;;;;;;;5047462;28;20021;-55
2022/01/19 10:24:19;;;;;;;54.47;36.72;;;;;;;;;;5049661;28;20029;-55
2022/01/19 10:26:44;;;;;;;55.38;38.20;;;;;;;;;;5050997;28;20029;-56
2022/01/19 10:29:10;;;;;;;54.22;37.17;;;;;;;;;;5049885;28;20043;-55
2022/01/19 10:31:37;;;;;;;54.22;36.35;;;;;;;;;;5050376;28;20124;-55
2022/01/19 10:34:09;;;;;;;56.78;40.25;;;;;;;;;;5049596;28;20061;-55
2022/01/19 10:36:41;;;;;;;55.35;38.70;;;;;;;;;;5050806;28;20123;-55
2022/01/19 10:39:06;;;;;;;54.00;36.03;;;;;;;;;;5049193;28;20099;-55
2022/01/19 10:41:31;;;;;;;55.23;41.43;;;;;;;;;;5051109;28;20008;-55
2022/01/19 10:43:57;;;;;;;65.68;44.92;;;;;;;;;;5049376;28;20522;-55
2022/01/19 10:46:25;;;;;;;57.85;39.50;;;;;;;;;;5050699;28;20021;-55
2022/01/19 10:48:56;;;;;;;60.83;41.08;;;;;;;;;;5049030;28;20063;-55
2022/01/19 10:51:21;;;;;;;61.33;44.05;;;;;;;;;;5050823;28;20357;-55
2022/01/19 10:53:47;;;;;;;61.70;41.33;;;;;;;;;;5045315;28;20044;-55
2022/01/19 10:56:26;;;;;;;61.55;42.17;;;;;;;;;;5050030;28;20020;-54
2022/01/19 10:58:51;;;;;;;;;;;;;;;;;;5049267;28;20021;-55
2022/01/19 11:01:30;;;;;;;60.67;38.95;;;;;;;;;;5051029;28;19928;-55
2022/01/19 11:04:13;;;;;;;61.10;41.22;;;;;;;;;;5053998;28;20055;-55
2022/01/19 11:06:40;;;;;;;62.80;41.15;;;;;;;;;;5068183;28;20085;-55
2022/01/19 11:09:12;;;;;;;57.28;41.40;;;;;;;;;;5064509;28;20051;-55
2022/01/19 11:11:37;;;;;;;55.65;35.88;;;;;;;;;;5049005;28;20120;-55
2022/01/19 11:14:04;;;;;;;56.33;38.63;;;;;;;;;;5047875;28;20036;-55
2022/01/19 11:16:33;;;;;;;54.95;40.20;;;;;;;;;;5058482;28;20491;-55
2022/01/19 11:18:58;;;;;;;56.60;41.38;;;;;;;;;;5055294;28;20044;-55
2022/01/19 11:21:25;;;;;;;52.47;38.42;;;;;;;;;;5070120;28;20046;-55
2022/01/19 11:24:05;;;;;;;56.15;43.03;;;;;;;;;;5067773;28;20032;-55
2022/01/19 11:26:31;;;;;;;55.13;38.20;;;;;;;;;;5051245;28;20095;-55
2022/01/19 11:29:10;;;;;;;62.17;39.60;;;;;;;;;;5067238;28;20029;-55
2022/01/19 11:31:37;;;;;;;54.90;37.13;;;;;;;;;;5050846;28;20056;-55
2022/01/19 11:34:02;;;;;;;58.83;39.25;;;;;;;;;;5045570;28;20127;-54
2022/01/19 11:36:31;;;;;;;56.45;39.17;;;;;;;;;;5065613;28;20099;-54
2022/01/19 11:39:10;;;;;;;60.00;41.35;;;;;;;;;;5048798;28;20403;-54
2022/01/19 11:41:36;;;;;;;59.20;40.10;;;;;;;;;;5057603;28;20134;-55
2022/01/19 11:44:02;;;;;;;55.50;39.42;;;;;;;;;;5048342;28;20571;-55
2022/01/19 11:46:31;;;;;;;52.83;35.95;;;;;;;;;;5049695;28;20110;-55
2022/01/19 11:48:56;;;;;;;54.40;39.53;;;;;;;;;;5053523;28;20090;-55
2022/01/19 11:51:24;;;;;;;54.20;39.00;;;;;;;;;;5049332;28;20033;-55
2022/01/19 11:54:07;;;;;;;55.97;39.53;;;;;;;;;;5048801;28;20458;-55
2022/01/19 11:56:51;;;;;;;57.45;42.05;;;;;;;;;;5049814;28;20029;-55
2022/01/19 11:59:16;;;;;;;49.83;38.40;;;;;;;;;;5048151;28;20041;-55
2022/01/19 12:01:41;;;;;;;60.80;43.20;;;;;;;;;;5049465;28;20017;-55
2022/01/19 12:04:17;;;;;;;50.35;35.22;;;;;;;;;;5048404;28;20506;-55
2022/01/19 12:06:42;;;;;;;56.67;38.50;;;;;;;;;;5049793;28;20404;-55
2022/01/19 12:09:09;;;;;;;52.10;38.95;;;;;;;;;;5048005;28;20029;-55
2022/01/19 12:11:37;;;;;;;55.53;39.70;;;;;;;;;;5049458;28;20547;-55
2022/01/19 12:14:10;;;;;;;61.25;39.85;;;;;;;;;;5048255;28;20059;-55
2022/01/19 12:19:10;;;;;;;62.55;44.15;;;;;;;;;;5048438;28;20033;-55
2022/01/19 12:21:41;;;;;;;64.80;41.78;;;;;;;;;;5049477;28;20013;-55
2022/01/19 12:24:26;;;;;;;64.95;42.40;;;;;;;;;;5048192;28;20033;-55
2022/01/19 12:27:02;;;;;;;55.95;37.45;;;;;;;;;;5049174;28;20021;-55
2022/01/19 12:29:33;;;;;;;65.70;42.58;;;;;;;;;;5048230;28;20045;-55
2022/01/19 12:32:00;;;;;;;63.42;39.00;;;;;;;;;;5049128;28;20464;-55
2022/01/19 12:34:38;;;;;;;57.40;38.22;;;;;;;;;;5047894;28;20054;-55
2022/01/19 12:37:03;;;;;;;64.00;42.17;;;;;;;;;;5049183;28;20534;-55
2022/01/19 12:39:29;;;;;;;64.13;41.95;;;;;;;;;;5048021;28;20117;-55
2022/01/19 12:41:59;;;;;;;69.07;41.92;;;;;;;;;;5052893;28;20103;-55
2022/01/19 12:44:47;;;;;;;67.28;46.50;;;;;;;;;;5051454;28;20111;-55
2022/01/19 12:47:24;;;;;;;64.55;43.65;;;;;;;;;;5053227;28;20049;-55
2022/01/19 12:49:50;;;;;;;61.38;44.65;;;;;;;;;;5051243;28;20044;-55
2022/01/19 12:52:16;;;;;;;60.30;40.95;;;;;;;;;;5052514;28;20021;-55
2022/01/19 12:54:41;;;;;;;72.28;45.97;;;;;;;;;;5051185;28;20044;-55
2022/01/19 12:57:06;;;;;;;55.70;38.60;;;;;;;;;;5052714;28;20024;-55
2022/01/19 12:59:32;;;;;;;68.95;40.65;;;;;;;;;;5046712;28;20467;-54
2022/01/19 13:01:57;;;;;;;65.78;43.75;;;;;;;;;;5051995;28;20017;-55
2022/01/19 13:04:27;;;;;;;68.55;40.35;;;;;;;;;;5051083;28;20029;-55
2022/01/19 13:06:55;;;;;;;58.15;42.92;;;;;;;;;;5051855;28;20495;-55
2022/01/19 13:09:28;;;;;;;59.37;35.00;;;;;;;;;;5051058;28;20507;-55
2022/01/19 13:11:55;;;;;;;68.50;42.35;;;;;;;;;;5052129;28;20028;-54
2022/01/19 13:14:23;;;;;;;70.82;41.33;;;;;;;;;;5050621;28;20040;-55
2022/01/19 13:16:49;;;;;;;67.60;41.97;;;;;;;;;;5046487;28;20017;-55
2022/01/19 13:19:19;;;;;;;65.57;39.58;;;;;;;;;;5037178;28;20068;-55
2022/01/19 13:21:47;;;;;;;78.32;46.83;;;;;;;;;;5051931;28;20033;-55
2022/01/19 13:24:31;;;;;;;67.90;46.92;;;;;;;;;;5050700;28;20497;-55
2022/01/19 13:26:59;;;;;;;76.45;46.83;;;;;;;;;;5051922;28;20021;-54
2022/01/19 13:29:27;;;;;;;63.33;44.55;;;;;;;;;;5050042;28;20037;-55
2022/01/19 13:31:57;;;;;;;59.35;36.10;;;;;;;;;;5051683;28;20053;-55
2022/01/19 13:34:23;;;;;;;56.80;41.08;;;;;;;;;;5050861;28;20036;-55
2022/01/19 13:36:55;;;;;;;90.37;46.03;;;;;;;;;;5051716;28;20021;-55
2022/01/19 13:39:22;;;;;;;68.07;45.60;;;;;;;;;;5050583;28;20571;-54
2022/01/19 13:41:50;;;;;;;75.50;43.30;;;;;;;;;;5051690;28;20502;-55
2022/01/19 13:44:19;;;;;;;69.13;44.78;;;;;;;;;;5050282;28;20385;-55
2022/01/19 13:46:45;;;;;;;71.70;42.85;;;;;;;;;;5051817;28;20024;-55
2022/01/19 13:49:10;;;;;;;56.30;42.73;;;;;;;;;;5050517;28;20484;-55
2022/01/19 13:51:40;;;;;;;68.72;47.00;;;;;;;;;;5050788;28;20449;-55
2022/01/19 13:54:06;;;;;;;60.75;42.42;;;;;;;;;;5050192;28;20036;-55
2022/01/19 13:56:39;;;;;;;65.07;41.53;;;;;;;;;;5051866;28;20025;-55
2022/01/19 13:59:04;;;;;;;78.10;48.92;;;;;;;;;;5050093;28;20116;-55
2022/01/19 14:01:33;;;;;;;68.97;45.00;;;;;;;;;;5051553;28;20116;-55
2022/01/19 14:04:04;;;;;;;63.70;44.67;;;;;;;;;;5050063;28;20815;-55
2022/01/19 14:06:31;;;;;;;64.88;44.03;;;;;;;;;;5051452;28;20190;-54
2022/01/19 14:09:07;;;;;;;63.13;41.35;;;;;;;;;;5049696;28;20437;-55
2022/01/19 14:11:32;;;;;;;70.90;43.80;;;;;;;;;;5051666;28;20414;-55
2022/01/19 14:13:59;;;;;;;65.90;45.85;;;;;;;;;;5049176;28;20037;-55
2022/01/19 14:16:31;;;;;;;68.85;46.17;;;;;;;;;;5051532;28;20043;-55
2022/01/19 14:19:08;;;;;;;62.95;46.20;;;;;;;;;;5049664;28;20450;-55
2022/01/19 14:21:33;;;;;;;77.63;50.78;;;;;;;;;;5050901;28;20031;-55
2022/01/19 14:23:59;;;;;;;64.13;48.42;;;;;;;;;;5049576;28;20112;-55
2022/01/19 14:26:24;;;;;;;68.85;48.53;;;;;;;;;;5051068;28;20431;-55
2022/01/19 14:29:08;;;;;;;61.90;47.70;;;;;;;;;;5046118;28;20040;-54
2022/01/19 14:31:33;;;;;;;64.95;41.47;;;;;;;;;;5049277;28;20419;-55
2022/01/19 14:33:58;;;;;;;64.75;42.95;;;;;;;;;;5049254;28;20040;-55
2022/01/19 14:36:24;;;;;;;67.70;46.03;;;;;;;;;;5050517;28;20176;-54
2022/01/19 14:38:56;;;;;;;66.37;48.60;;;;;;;;;;5049414;28;20039;-55
2022/01/19 14:41:27;;;;;;;78.93;47.15;;;;;;;;;;5050991;28;20096;-55
2022/01/19 14:44:00;;;;;;;71.32;45.90;;;;;;;;;;5049007;28;20029;-55
2022/01/19 14:46:41;;;;;;;66.25;48.38;;;;;;;;;;5051113;28;20499;-55
2022/01/19 14:49:07;;;;;;;64.78;45.53;;;;;;;;;;5049495;28;20033;-55
2022/01/19 14:51:37;;;;;;;63.50;44.60;;;;;;;;;;5050248;28;20051;-54
2022/01/19 14:54:04;;;;;;;67.72;44.72;;;;;;;;;;5049243;28;20061;-55
2022/01/19 14:56:30;;;;;;;71.45;46.10;;;;;;;;;;5050720;28;20121;-55
2022/01/19 14:59:03;;;;;;;73.68;46.72;;;;;;;;;;5048954;28;20033;-55
2022/01/19 15:01:28;;;;;;;67.03;48.83;;;;;;;;;;5050507;28;20047;-55
2022/01/19 15:03:54;;;;;;;67.55;46.97;;;;;;;;;;5048252;28;20654;-55
2022/01/19 15:06:20;;;;;;;63.08;43.40;;;;;;;;;;5050166;28;20017;-55
2022/01/19 15:08:45;;;;;;;70.38;45.47;;;;;;;;;;5048611;28;20028;-55
2022/01/19 15:11:11;;;;;;;73.43;51.10;;;;;;;;;;5050359;28;20024;-55
2022/01/19 15:13:36;;;;;;;62.33;47.08;;;;;;;;;;5048295;28;20017;-55
2022/01/19 15:16:01;;;;;;;76.23;49.63;;;;;;;;;;5050133;28;20017;-55
2022/01/19 15:18:26;;;;;;;67.47;47.00;;;;;;;;;;5050138;28;20435;-55
2022/01/19 15:20:51;;;;;;;67.68;48.05;;;;;;;;;;5048322;28;20033;-55
2022/01/19 15:23:18;;;;;;;77.65;51.63;;;;;;;;;;5050450;28;20459;-55
2022/01/19 15:25:43;;;;;;;68.55;47.70;;;;;;;;;;5048450;28;20144;-54
2022/01/19 15:28:09;;;;;;;82.83;55.43;;;;;;;;;;5050005;28;20059;-54
2022/01/19 15:30:35;;;;;;;68.93;48.70;;;;;;;;;;5045196;28;21005;-55
2022/01/19 15:33:00;;;;;;;91.85;54.92;;;;;;;;;;5049670;28;20052;-55
2022/01/19 15:35:26;;;;;;;84.95;57.80;;;;;;;;;;5048023;28;20029;-54
2022/01/19 15:37:51;;;;;;;77.22;51.28;;;;;;;;;;5049626;28;20021;-55
2022/01/19 15:40:17;;;;;;;82.43;49.95;;;;;;;;;;5050180;28;20036;-55
2022/01/19 15:42:44;;;;;;;82.63;52.63;;;;;;;;;;5050846;28;20070;-55
2022/01/19 15:45:10;;;;;;;91.70;54.40;;;;;;;;;;5048966;28;20037;-54
2022/01/19 15:47:35;;;;;;;92.55;56.35;;;;;;;;;;5050026;28;20108;-55